ESSBESSD

Guest
Details From ESSB - Bromma
To ESSD - Borlange
Flight Number -
Tags Routegen Generated
Created
Modified
Stats Distance 96 nm / 178 km
Max Altitude 200 ft / 61 m
Waypoints 5
Social Downloads 0
Likes 0
Share VATSIM

Download

Looking for another format? Having issues loading an existing format? Contact us
Advertisement - Login to hide

Notes

Departing runway 30 ESSB. Arriving runway 13 ESSD.

Route

ESSB +59.40_+017.81 +59.80_+016.94 +60.37_+015.64 ESSD

ID Type Via Altitude Latitude Longitude Leg Dist Tot Dist Heading (true) Name
O ESSB APT - 200 ft / 61 m 59.35867˚ 17.92964˚ - 0 nm - -
+59.40_+017.81 LATLON - 200 ft / 61 m 59.40021˚ 17.81330˚ 4 nm 4 nm 305° / 305° -
+59.80_+016.94 LATLON - 200 ft / 61 m 59.79912˚ 16.93582˚ 35 nm 40 nm 312° / 312° -
+60.37_+015.64 LATLON - 200 ft / 61 m 60.36617˚ 15.63876˚ 51 nm 91 nm 312° / 311° -
O ESSD APT - 0 ft / 0 m 60.41510˚ 15.53084˚ 4 nm 96 nm 313° / 312° -

Altitude Profile

Advertisement - Login to hide

ESSB

Details ICAO ESSB (BMA)
Name BROMMA
Region Sweden
Timezone Europe/Stockholm (UTC+1.0)
Stats Elevation 47 ft / 14 m (AMSL)
Location 59.354389° 17.941604°
Runways 1
Magnetic Variation 6.048° E

METAR

ESSB 110220Z AUTO 30001KT 0050 R12/0550N R30/0200N FZFG SCT001/// M03/M03 Q0991

Decode

TAF

Not found

Departure Runways

ID Width Length Bearing (true) Bearing (mag) Surface Threshold Offset Overrun Length
12 148 ft / 45 m 6,201 ft / 1,890 m 125.06° 119.01° Asphalt 381 ft / 116 m 0 ft / 0 m
30 148 ft / 45 m 6,201 ft / 1,890 m 305.09° 299.04° Asphalt 361 ft / 110 m 0 ft / 0 m

ESSD

Details ICAO ESSD (BLE)
Name Borlange
Region Sweden
Timezone Europe/Stockholm (UTC+1.0)
Stats Elevation 503 ft / 153 m (AMSL)
Location 60.424422° 15.505841°
Runways 2
Magnetic Variation 5.241° E

METAR

ESSD 110220Z AUTO 11006KT 9999 OVC006/// M02/M03 Q0991

Decode

TAF

Not found

Destination Runways

ID Width Length Bearing (true) Bearing (mag) Surface Threshold Offset Overrun Length
12 163 ft / 50 m 2,362 ft / 720 m 120.00° 114.76° Grass 0 ft / 0 m 0 ft / 0 m
14 148 ft / 45 m 7,561 ft / 2,305 m 132.46° 127.22° Asphalt 0 ft / 0 m 210 ft / 64 m
30 163 ft / 50 m 2,362 ft / 720 m 300.00° 294.76° Grass 0 ft / 0 m 0 ft / 0 m
32 148 ft / 45 m 7,561 ft / 2,305 m 312.49° 307.25° Asphalt 0 ft / 0 m 113 ft / 34 m

Approach Navaids

Runway Type Ident Frequency Range Bearing (true) Bearing (mag) Slope Elevation
32 Localiser SD 109.50 MHz 18 nm / 33 km 312.44° 307.20° - 503 ft / 153 m (AMSL)
32 Glidescope SD 109.50 MHz 10 nm / 19 km 312.48° 307.24° 3.00° 503 ft / 153 m (AMSL)

Popular Alternatives